Nimrod, Minnesota
Current Conditions -  °F | °C
As of 5:53 AM on Friday 19 Dec 2014 (Local Time) from KSAZ Reporting Station
Overcast Overcast  
Wind Chill:   Ceiling: 900
Heat Index: 18°   Visibility: 7mi
Dew Point: 18°   Wind: 6mph
Humidity: 100%   Direction: 150°SSE
Pressure: 30.16"   Gusts: NA
Location:  46.64°N, 94.88°W
Report Text: KSAZ 191153Z AUTO 15005KT 7SM OVC009 M08/M08 A3016 RMK AO2
Loading
Personal Weather Stations






























Interactive Weather Map New forecast layout! Learn more

10-Day Weather Forecast

Advertisements
Track Severe Weather on mobile